Terminal Aerodrome Forecast
Issued by NWS

Home | Current Version | Previous Version | Text Only | Print | Product List | Glossary On
Versions: 1 2 3 4 5 6 7 8 9 10 11 12 13 14
841
FTUS42 TJSJ 250545
TAFJPS
TAF
TJPS 250545Z 2506/2606 07006KT P6SM VCSH FEW025 SCT050
     FM251400 13010G18KT P6SM FEW025 SCT050
     FM252300 07006KT P6SM FEW030
      AMD NOT SKED 2512/2603=

USA.gov is the U.S. government's official web portal to all federal, state and local government web resources and services.